createdAt,value
2019-05-28T00:01:05.658Z,64.07
2019-05-28T00:03:31.854Z,64.23
2019-05-28T00:05:58.047Z,63.12
2019-05-28T00:08:24.476Z,62.95
2019-05-28T00:10:50.746Z,63.86
2019-05-28T00:13:16.937Z,63.18
2019-05-28T00:15:43.635Z,62.62
2019-05-28T00:18:09.721Z,64.75
2019-05-28T00:20:35.833Z,65.41
2019-05-28T00:23:02.095Z,65.04
2019-05-28T00:25:29.352Z,65.53
2019-05-28T00:27:55.581Z,67.03
2019-05-28T00:30:21.992Z,66.82
2019-05-28T00:32:48.086Z,67.56
2019-05-28T00:35:14.997Z,67.35
2019-05-28T00:37:42.255Z,67.96
2019-05-28T00:40:08.928Z,66.19
2019-05-28T00:42:35.243Z,68.02
2019-05-28T00:45:01.942Z,69.71
2019-05-28T00:47:28.357Z,69.58
2019-05-28T00:49:54.649Z,68.67
2019-05-28T00:52:20.823Z,68.38
2019-05-28T00:54:47.110Z,69.11
2019-05-28T00:57:14.906Z,69.57
2019-05-28T00:59:42.671Z,69.05
2019-05-28T01:02:08.782Z,69.85
2019-05-28T01:04:35.060Z,69.87
2019-05-28T01:07:01.151Z,69.99
2019-05-28T01:09:27.734Z,71.80
2019-05-28T01:11:53.917Z,72.03
2019-05-28T01:14:20.147Z,71.56
2019-05-28T01:16:46.321Z,71.55
2019-05-28T01:19:12.542Z,71.29
2019-05-28T01:21:38.648Z,72.82
2019-05-28T01:24:04.877Z,72.27
2019-05-28T01:26:31.080Z,73.17
2019-05-28T01:28:57.170Z,73.76
2019-05-28T01:31:23.467Z,73.57
2019-05-28T01:33:49.551Z,72.50
2019-05-28T01:36:15.788Z,72.30
2019-05-28T01:38:42.016Z,72.33
2019-05-28T01:41:08.630Z,72.26
2019-05-28T01:43:34.912Z,73.19
2019-05-28T01:46:01.139Z,72.75
2019-05-28T01:48:27.257Z,73.06
2019-05-28T01:50:53.337Z,72.49
2019-05-28T01:53:19.422Z,73.13
2019-05-28T01:55:45.638Z,74.15
2019-05-28T01:58:12.840Z,73.15
2019-05-28T02:00:38.971Z,72.75
2019-05-28T02:03:05.163Z,72.85
2019-05-28T02:05:31.464Z,72.68
2019-05-28T02:07:57.675Z,72.56
2019-05-28T02:10:23.987Z,72.75
2019-05-28T02:12:50.211Z,72.44
2019-05-28T02:15:16.991Z,72.48
2019-05-28T02:17:43.152Z,73.11
2019-05-28T02:20:09.693Z,73.04
2019-05-28T02:22:36.020Z,74.36
2019-05-28T02:25:05.013Z,74.22
2019-05-28T02:27:31.215Z,74.42
2019-05-28T02:29:57.323Z,73.93
2019-05-28T02:32:23.518Z,76.19
2019-05-28T02:34:49.637Z,76.42
2019-05-28T02:37:17.753Z,76.21
2019-05-28T02:39:43.888Z,76.25
2019-05-28T02:42:10.108Z,76.25
2019-05-28T02:44:36.177Z,76.26
2019-05-28T02:47:02.489Z,76.16
2019-05-28T02:49:28.591Z,75.65
2019-05-28T02:51:54.873Z,75.37
2019-05-28T02:54:21.072Z,74.51
2019-05-28T02:56:47.969Z,74.52
2019-05-28T02:59:15.805Z,75.75
2019-05-28T03:01:44.588Z,76.22
2019-05-28T03:04:13.141Z,75.72
2019-05-28T03:06:40.042Z,75.72
2019-05-28T03:09:06.350Z,75.14
2019-05-28T03:11:32.552Z,75.26
2019-05-28T03:13:58.994Z,74.98
2019-05-28T03:16:28.884Z,74.39
2019-05-28T03:18:56.884Z,74.23
2019-05-28T03:21:25.122Z,73.03
2019-05-28T03:23:55.040Z,73.51
2019-05-28T03:26:23.656Z,73.94
2019-05-28T03:28:49.465Z,74.12
2019-05-28T03:31:15.732Z,74.36
2019-05-28T03:33:42.042Z,74.22
2019-05-28T03:36:10.946Z,74.38
2019-05-28T03:38:38.265Z,74.39
2019-05-28T03:41:04.525Z,74.39
2019-05-28T03:43:30.610Z,74.31
2019-05-28T03:45:56.809Z,73.75
2019-05-28T03:48:22.886Z,73.85
2019-05-28T03:50:49.105Z,74.19
2019-05-28T03:53:15.280Z,74.35
2019-05-28T03:55:41.406Z,74.75
2019-05-28T03:58:07.584Z,74.54
2019-05-28T04:00:33.793Z,75.73
2019-05-28T04:02:59.976Z,75.28
2019-05-28T04:05:26.420Z,76.21
2019-05-28T04:07:52.740Z,76.71
2019-05-28T04:10:19.033Z,76.03
2019-05-28T04:12:45.251Z,76.04
2019-05-28T04:15:11.643Z,75.56
2019-05-28T04:17:37.733Z,74.65
2019-05-28T04:20:04.834Z,73.91
2019-05-28T04:22:30.933Z,73.42
2019-05-28T04:24:57.071Z,73.64
2019-05-28T04:27:23.264Z,73.35
2019-05-28T04:29:49.495Z,73.20
2019-05-28T04:32:15.702Z,74.64
2019-05-28T04:34:41.912Z,74.04
2019-05-28T04:37:08.031Z,74.19
2019-05-28T04:39:35.509Z,74.16
2019-05-28T04:42:01.831Z,74.19
2019-05-28T04:44:27.957Z,74.56
2019-05-28T04:46:54.062Z,73.37
2019-05-28T04:49:20.175Z,73.58
2019-05-28T04:51:46.277Z,73.39
2019-05-28T04:54:12.586Z,71.68
2019-05-28T04:56:38.687Z,69.24
2019-05-28T04:59:04.883Z,68.65
2019-05-28T05:01:31.092Z,68.33
2019-05-28T05:03:57.312Z,66.65
2019-05-28T05:06:23.527Z,65.96
2019-05-28T05:08:49.787Z,65.94
2019-05-28T05:11:16.074Z,65.75
2019-05-28T05:13:42.337Z,65.53
2019-05-28T05:16:08.493Z,66.50
2019-05-28T05:18:34.711Z,66.70
2019-05-28T05:21:00.931Z,67.39
2019-05-28T05:23:27.020Z,66.46
2019-05-28T05:25:53.137Z,67.18
2019-05-28T05:28:20.681Z,66.76
2019-05-28T05:30:46.771Z,65.87
2019-05-28T05:33:19.670Z,65.98
2019-05-28T05:35:41.196Z,65.77
2019-05-28T05:38:07.526Z,66.51
2019-05-28T05:40:33.583Z,66.62
2019-05-28T05:42:59.877Z,68.39
2019-05-28T05:45:26.200Z,68.49
2019-05-28T05:47:52.515Z,69.21
2019-05-28T05:50:19.049Z,69.90
2019-05-28T05:52:45.167Z,69.19
2019-05-28T05:55:11.784Z,68.59
2019-05-28T05:57:37.999Z,70.24
2019-05-28T06:00:05.525Z,71.48
2019-05-28T06:02:32.831Z,70.98
2019-05-28T06:04:59.292Z,71.21
2019-05-28T06:07:25.626Z,72.95
2019-05-28T06:09:51.844Z,71.97
2019-05-28T06:12:18.265Z,72.82
2019-05-28T06:14:44.451Z,74.05
2019-05-28T06:17:10.625Z,73.59
2019-05-28T06:19:36.815Z,74.62
2019-05-28T06:22:03.465Z,73.06
2019-05-28T06:24:29.654Z,74.54
2019-05-28T06:26:55.762Z,73.01
2019-05-28T06:29:21.965Z,73.23
2019-05-28T06:31:48.195Z,70.60
2019-05-28T06:34:14.337Z,70.46
2019-05-28T06:36:40.470Z,72.12
2019-05-28T06:39:06.681Z,74.04
2019-05-28T06:41:32.800Z,72.57
2019-05-28T06:43:59.042Z,75.41
2019-05-28T06:46:25.259Z,75.66
2019-05-28T06:48:51.337Z,74.40
2019-05-28T06:51:17.442Z,74.74
2019-05-28T06:53:43.763Z,73.73
2019-05-28T06:56:09.864Z,74.09
2019-05-28T06:58:40.020Z,75.23
2019-05-28T07:01:04.620Z,74.16
2019-05-28T07:03:30.820Z,74.81
2019-05-28T07:06:07.389Z,74.26
2019-05-28T07:08:25.174Z,75.34
2019-05-28T07:10:57.546Z,75.35
2019-05-28T07:13:19.479Z,75.23
2019-05-28T07:15:45.616Z,76.69
2019-05-28T07:18:11.840Z,78.39
2019-05-28T07:20:38.088Z,76.50
2019-05-28T07:23:04.311Z,78.61
2019-05-28T07:25:30.741Z,77.66
2019-05-28T07:28:10.438Z,77.44
2019-05-28T07:30:25.077Z,75.71
2019-05-28T07:32:51.264Z,74.94
2019-05-28T07:35:17.455Z,74.74
2019-05-28T07:37:43.568Z,74.92
2019-05-28T07:40:10.164Z,73.73
2019-05-28T07:42:36.402Z,73.00
2019-05-28T07:45:04.785Z,73.57
2019-05-28T07:47:30.910Z,74.02
2019-05-28T07:49:57.128Z,74.53
2019-05-28T07:52:23.323Z,76.34
2019-05-28T07:54:49.420Z,76.16
2019-05-28T07:57:15.650Z,75.21
2019-05-28T07:59:41.847Z,74.30
2019-05-28T08:02:08.141Z,74.20
2019-05-28T08:04:46.715Z,74.17
2019-05-28T08:07:02.883Z,74.55
2019-05-28T08:09:29.082Z,73.83
2019-05-28T08:11:55.219Z,73.32
2019-05-28T08:14:21.490Z,71.36
2019-05-28T08:16:52.688Z,71.65
2019-05-28T08:19:15.655Z,72.23
2019-05-28T08:21:41.997Z,69.70
2019-05-28T08:24:08.317Z,71.53
2019-05-28T08:26:34.545Z,71.76
2019-05-28T08:29:00.769Z,69.99
2019-05-28T08:31:27.116Z,70.16
2019-05-28T08:33:53.522Z,70.08
2019-05-28T08:36:19.808Z,71.24
2019-05-28T08:38:45.955Z,68.02
2019-05-28T08:41:12.265Z,67.19
2019-05-28T08:43:38.618Z,66.27
2019-05-28T08:46:04.854Z,66.66
2019-05-28T08:48:31.312Z,67.04
2019-05-28T08:50:57.650Z,65.47
2019-05-28T08:53:23.723Z,66.73
2019-05-28T08:55:50.160Z,64.61
2019-05-28T08:58:16.256Z,61.17
2019-05-28T09:00:43.297Z,61.07
2019-05-28T09:03:09.779Z,59.20
2019-05-28T09:05:36.276Z,61.59
2019-05-28T09:08:03.259Z,61.04
2019-05-28T09:10:29.530Z,59.39
2019-05-28T09:12:55.747Z,57.56
2019-05-28T09:15:22.060Z,59.96
2019-05-28T09:17:48.290Z,59.34
2019-05-28T09:20:14.799Z,59.94
2019-05-28T09:22:40.993Z,61.34
2019-05-28T09:25:07.314Z,59.80
2019-05-28T09:27:33.551Z,59.56
2019-05-28T09:29:59.736Z,59.44
2019-05-28T09:32:25.945Z,56.03
2019-05-28T09:34:52.058Z,55.97
2019-05-28T09:37:18.176Z,59.75
2019-05-28T09:39:44.396Z,57.62
2019-05-28T09:42:10.573Z,58.37
2019-05-28T09:44:36.783Z,57.25
2019-05-28T09:47:03.144Z,55.48
2019-05-28T09:49:29.253Z,59.26
2019-05-28T09:51:55.448Z,57.22
2019-05-28T09:54:21.679Z,60.79
2019-05-28T09:56:47.975Z,59.57
2019-05-28T09:59:14.269Z,56.57
2019-05-28T10:01:40.756Z,57.58
2019-05-28T10:04:06.956Z,59.62
2019-05-28T10:06:37.151Z,56.43
2019-05-28T10:09:01.205Z,53.21
2019-05-28T10:11:28.080Z,54.25
2019-05-28T10:13:54.378Z,56.09
2019-05-28T10:16:20.664Z,55.30
2019-05-28T10:18:46.758Z,55.83
2019-05-28T10:21:18.706Z,57.76
2019-05-28T10:23:42.249Z,59.10
2019-05-28T10:26:08.491Z,56.20
2019-05-28T10:28:34.769Z,54.75
2019-05-28T10:31:00.993Z,57.11
2019-05-28T10:33:27.433Z,53.19
2019-05-28T10:35:53.611Z,53.87
2019-05-28T10:38:19.925Z,52.68
2019-05-28T10:40:46.053Z,54.83
2019-05-28T10:43:12.151Z,55.55
2019-05-28T10:45:38.480Z,53.65
2019-05-28T10:48:04.777Z,53.54
2019-05-28T10:50:31.176Z,54.15
2019-05-28T10:52:57.529Z,54.39
2019-05-28T10:55:23.743Z,52.90
2019-05-28T10:57:50.052Z,54.66
2019-05-28T11:00:17.350Z,54.80
2019-05-28T11:02:43.556Z,54.93
2019-05-28T11:05:11.870Z,54.73
2019-05-28T11:07:38.179Z,55.11
2019-05-28T11:10:22.462Z,54.59
2019-05-28T11:12:34.409Z,56.42
2019-05-28T11:15:00.523Z,56.76
2019-05-28T11:17:26.771Z,56.49
2019-05-28T11:19:52.917Z,57.79
2019-05-28T11:22:19.285Z,56.86
2019-05-28T11:24:45.460Z,57.62
2019-05-28T11:27:11.674Z,55.61
2019-05-28T11:29:37.823Z,57.59
2019-05-28T11:32:04.127Z,54.06
2019-05-28T11:34:30.316Z,55.08
2019-05-28T11:37:08.718Z,55.47
2019-05-28T11:39:24.799Z,55.21
2019-05-28T11:41:50.893Z,56.75
2019-05-28T11:44:17.142Z,53.84
2019-05-28T11:46:43.217Z,52.16
2019-05-28T11:49:09.329Z,54.70
2019-05-28T11:51:35.502Z,52.38
2019-05-28T11:54:01.708Z,53.06
2019-05-28T11:56:27.990Z,55.74
2019-05-28T11:58:54.122Z,55.65
2019-05-28T12:01:33.653Z,54.76
2019-05-28T12:03:48.383Z,51.55
2019-05-28T12:06:14.631Z,53.73
2019-05-28T12:08:40.947Z,52.94
2019-05-28T12:11:07.203Z,52.66
2019-05-28T12:13:33.335Z,53.39
2019-05-28T12:15:59.530Z,53.05
2019-05-28T12:18:25.813Z,52.56
2019-05-28T12:20:52.001Z,51.98
2019-05-28T12:23:18.250Z,52.77
2019-05-28T12:25:44.466Z,50.93
2019-05-28T12:28:10.653Z,50.57
2019-05-28T12:30:36.990Z,51.44
2019-05-28T12:33:03.668Z,54.07
2019-05-28T12:35:30.492Z,54.00
2019-05-28T12:37:57.053Z,53.28
2019-05-28T12:40:23.950Z,52.96
2019-05-28T12:42:50.177Z,54.11
2019-05-28T12:45:33.924Z,55.17
2019-05-28T12:48:04.524Z,55.12
2019-05-28T12:50:19.687Z,55.44
2019-05-28T12:52:46.797Z,56.17
2019-05-28T12:55:11.808Z,55.07
2019-05-28T12:57:38.154Z,55.27
2019-05-28T13:00:08.951Z,55.96
2019-05-28T13:02:35.392Z,56.76
2019-05-28T13:05:03.996Z,57.41
2019-05-28T13:07:30.124Z,59.47
2019-05-28T13:09:56.204Z,63.51
2019-05-28T13:12:22.419Z,61.17
2019-05-28T13:14:49.857Z,64.13
2019-05-28T13:17:16.275Z,61.43
2019-05-28T13:19:42.695Z,61.22
2019-05-28T13:22:09.204Z,64.14
2019-05-28T13:24:35.500Z,64.14
2019-05-28T13:27:17.782Z,66.13
2019-05-28T13:29:31.275Z,65.10
2019-05-28T13:31:57.507Z,65.93
2019-05-28T13:34:26.467Z,66.90
2019-05-28T13:36:53.002Z,67.55
2019-05-28T13:39:20.427Z,68.73
2019-05-28T13:41:46.676Z,66.00
2019-05-28T13:44:12.868Z,70.28
2019-05-28T13:46:39.076Z,70.00
2019-05-28T13:49:05.194Z,70.77
2019-05-28T13:51:31.379Z,70.93
2019-05-28T13:53:58.598Z,66.46
2019-05-28T13:56:24.704Z,72.64
2019-05-28T13:58:51.115Z,71.92
2019-05-28T14:01:17.313Z,71.20
2019-05-28T14:03:43.545Z,70.67
2019-05-28T14:06:09.877Z,70.12
2019-05-28T14:08:46.709Z,71.41
2019-05-28T14:11:04.490Z,71.21
2019-05-28T14:13:30.819Z,71.69
2019-05-28T14:15:56.933Z,73.88
2019-05-28T14:18:23.294Z,73.58
2019-05-28T14:20:49.703Z,73.66
2019-05-28T14:23:16.019Z,77.51
2019-05-28T14:25:43.040Z,77.82
2019-05-28T14:28:09.473Z,75.88
2019-05-28T14:30:35.972Z,77.03
2019-05-28T14:33:02.382Z,77.85
2019-05-28T14:35:28.739Z,77.26
2019-05-28T14:37:55.043Z,79.27
2019-05-28T14:40:24.469Z,79.65
2019-05-28T14:42:49.535Z,80.29
2019-05-28T14:45:16.143Z,81.50
2019-05-28T14:47:43.361Z,79.79
2019-05-28T14:50:10.297Z,79.64
2019-05-28T14:52:36.799Z,79.56
2019-05-28T14:55:08.320Z,77.99
2019-05-28T14:57:34.529Z,77.54
2019-05-28T15:00:00.898Z,78.15
2019-05-28T15:02:27.071Z,78.66
2019-05-28T15:04:53.495Z,77.43
2019-05-28T15:07:19.625Z,76.50
2019-05-28T15:09:46.171Z,77.41
2019-05-28T15:12:12.513Z,78.29
2019-05-28T15:14:39.618Z,77.46
2019-05-28T15:17:05.781Z,79.00
2019-05-28T15:19:32.091Z,78.57
2019-05-28T15:21:58.446Z,76.71
2019-05-28T15:24:24.954Z,78.62
2019-05-28T15:26:51.117Z,77.29
2019-05-28T15:29:17.238Z,79.01
2019-05-28T15:31:43.435Z,77.31
2019-05-28T15:34:10.343Z,76.13
2019-05-28T15:36:36.416Z,75.76
2019-05-28T15:39:04.814Z,76.92
2019-05-28T15:41:31.136Z,75.57
2019-05-28T15:43:57.414Z,76.56
2019-05-28T15:46:23.681Z,76.51
2019-05-28T15:48:49.917Z,75.95
2019-05-28T15:51:16.233Z,77.41
2019-05-28T15:53:42.459Z,76.10
2019-05-28T15:56:08.681Z,77.94
2019-05-28T15:58:34.856Z,75.92
2019-05-28T16:01:01.304Z,76.88
2019-05-28T16:03:27.784Z,75.80
2019-05-28T16:05:54.195Z,76.75
2019-05-28T16:08:20.556Z,79.57
2019-05-28T16:10:46.788Z,77.83
2019-05-28T16:13:13.012Z,75.17
2019-05-28T16:15:39.392Z,76.88
2019-05-28T16:18:05.643Z,74.62
2019-05-28T16:20:31.844Z,73.81
2019-05-28T16:22:58.076Z,76.18
2019-05-28T16:25:24.149Z,74.54
2019-05-28T16:27:50.366Z,75.42
2019-05-28T16:30:16.885Z,75.22
2019-05-28T16:32:42.968Z,74.94
2019-05-28T16:35:09.435Z,73.70
2019-05-28T16:37:35.756Z,73.12
2019-05-28T16:40:15.090Z,72.05
2019-05-28T16:42:37.054Z,72.67
2019-05-28T16:45:05.681Z,72.86
2019-05-28T16:47:31.892Z,72.05
2019-05-28T16:49:57.965Z,72.75
2019-05-28T16:52:24.180Z,73.47
2019-05-28T16:54:50.294Z,70.65
2019-05-28T16:57:16.421Z,73.66
2019-05-28T16:59:42.499Z,72.29
2019-05-28T17:02:08.729Z,72.97
2019-05-28T17:04:34.871Z,72.12
2019-05-28T17:07:01.104Z,74.32
2019-05-28T17:09:27.465Z,73.27
2019-05-28T17:11:53.762Z,74.35
2019-05-28T17:14:19.900Z,74.67
2019-05-28T17:16:46.111Z,74.16
2019-05-28T17:19:12.534Z,73.94
2019-05-28T17:21:38.748Z,73.40
2019-05-28T17:24:05.066Z,73.49
2019-05-28T17:26:31.415Z,73.70
2019-05-28T17:28:57.538Z,75.42
2019-05-28T17:31:23.856Z,74.98
2019-05-28T17:33:50.066Z,73.25
2019-05-28T17:36:16.304Z,72.48
2019-05-28T17:38:42.551Z,75.11
2019-05-28T17:41:08.650Z,75.16
2019-05-28T17:43:35.061Z,76.15
2019-05-28T17:46:01.261Z,76.58
2019-05-28T17:48:27.377Z,76.07
2019-05-28T17:50:53.456Z,76.12
2019-05-28T17:53:19.678Z,76.32
2019-05-28T17:55:45.806Z,75.29
2019-05-28T17:58:12.064Z,74.39
2019-05-28T18:00:38.223Z,74.70
2019-05-28T18:03:04.346Z,73.68
2019-05-28T18:05:30.624Z,73.94
2019-05-28T18:07:57.037Z,71.46
2019-05-28T18:10:23.355Z,74.44
2019-05-28T18:12:49.450Z,75.93
2019-05-28T18:15:15.875Z,74.38
2019-05-28T18:17:42.116Z,75.22
2019-05-28T18:20:08.647Z,74.46
2019-05-28T18:22:34.952Z,73.35
2019-05-28T18:25:01.177Z,73.69
2019-05-28T18:27:27.297Z,73.85
2019-05-28T18:29:53.571Z,75.83
2019-05-28T18:32:19.778Z,75.38
2019-05-28T18:34:45.893Z,74.36
2019-05-28T18:37:12.012Z,75.55
2019-05-28T18:39:38.147Z,74.87
2019-05-28T18:42:04.362Z,73.53
2019-05-28T18:44:30.714Z,73.32
2019-05-28T18:46:56.853Z,72.96
2019-05-28T18:49:23.366Z,72.73
2019-05-28T18:51:49.494Z,73.81
2019-05-28T18:54:15.930Z,73.27
2019-05-28T18:56:42.379Z,74.17
2019-05-28T18:59:08.781Z,71.58
2019-05-28T19:01:35.163Z,71.70
2019-05-28T19:04:01.426Z,71.42
2019-05-28T19:06:27.633Z,69.70
2019-05-28T19:08:53.862Z,69.31
2019-05-28T19:11:20.021Z,68.50
2019-05-28T19:13:46.243Z,69.00
2019-05-28T19:16:12.669Z,70.15
2019-05-28T19:18:39.003Z,69.78
2019-05-28T19:21:05.158Z,68.38
2019-05-28T19:23:31.362Z,67.86
2019-05-28T19:25:58.558Z,67.13
2019-05-28T19:28:24.867Z,67.30
2019-05-28T19:30:51.311Z,68.86
2019-05-28T19:33:17.748Z,68.68
2019-05-28T19:35:45.382Z,67.18
2019-05-28T19:38:12.856Z,65.46
2019-05-28T19:40:41.939Z,64.51
2019-05-28T19:43:08.255Z,64.91
2019-05-28T19:45:35.078Z,64.61
2019-05-28T19:48:01.419Z,65.37
2019-05-28T19:50:27.767Z,64.57
2019-05-28T19:52:56.889Z,64.23
2019-05-28T19:55:22.297Z,62.58
2019-05-28T19:57:48.637Z,62.56
2019-05-28T20:00:15.536Z,61.62
2019-05-28T20:02:41.885Z,62.57
2019-05-28T20:05:09.521Z,61.09
2019-05-28T20:07:35.744Z,61.94
2019-05-28T20:10:04.572Z,61.70
2019-05-28T20:12:30.659Z,61.42
2019-05-28T20:14:56.782Z,62.20
2019-05-28T20:17:22.908Z,63.10
2019-05-28T20:19:51.395Z,63.54
2019-05-28T20:22:17.359Z,63.86
2019-05-28T20:24:43.484Z,63.79
2019-05-28T20:27:09.590Z,63.44
2019-05-28T20:29:35.685Z,65.82
2019-05-28T20:32:03.107Z,64.03
2019-05-28T20:34:29.350Z,65.41
2019-05-28T20:36:55.444Z,62.49
2019-05-28T20:39:21.657Z,64.10
2019-05-28T20:41:47.735Z,62.94
2019-05-28T20:44:13.843Z,64.06
2019-05-28T20:46:40.148Z,64.38
2019-05-28T20:49:06.785Z,65.56
2019-05-28T20:51:33.080Z,65.27
2019-05-28T20:53:59.326Z,65.22
2019-05-28T20:56:25.493Z,64.67
2019-05-28T20:58:51.812Z,62.93
2019-05-28T21:01:17.838Z,63.35
2019-05-28T21:03:43.952Z,64.17
2019-05-28T21:06:10.280Z,61.95
2019-05-28T21:08:36.431Z,63.47
2019-05-28T21:11:02.867Z,62.19
2019-05-28T21:13:29.074Z,63.46
2019-05-28T21:15:55.176Z,63.56
2019-05-28T21:18:21.266Z,63.70
2019-05-28T21:20:47.449Z,63.22
2019-05-28T21:23:13.600Z,61.59
2019-05-28T21:25:39.694Z,61.59
2019-05-28T21:28:05.888Z,63.26
2019-05-28T21:30:32.072Z,61.06
2019-05-28T21:32:58.814Z,61.50
2019-05-28T21:35:26.057Z,60.81
2019-05-28T21:37:53.066Z,60.56
2019-05-28T21:40:19.820Z,60.56
2019-05-28T21:42:58.430Z,60.00
2019-05-28T21:45:14.836Z,61.60
2019-05-28T21:47:41.201Z,61.60
2019-05-28T21:50:08.061Z,62.04
2019-05-28T21:52:36.298Z,60.47
2019-05-28T21:55:05.168Z,59.40
2019-05-28T21:57:31.245Z,59.06
2019-05-28T21:59:58.116Z,59.06
2019-05-28T22:02:24.523Z,60.70
2019-05-28T22:04:50.620Z,59.47
2019-05-28T22:07:17.039Z,59.47
2019-05-28T22:09:44.483Z,59.79
2019-05-28T22:12:10.578Z,59.03
2019-05-28T22:14:36.771Z,59.03
2019-05-28T22:17:04.113Z,61.34
2019-05-28T22:19:30.961Z,60.65
2019-05-28T22:21:58.337Z,60.20
2019-05-28T22:24:24.531Z,61.56
2019-05-28T22:26:50.627Z,62.17
2019-05-28T22:29:17.391Z,61.80
2019-05-28T22:31:43.477Z,63.24
2019-05-28T22:34:09.695Z,61.50
2019-05-28T22:36:35.778Z,62.28
2019-05-28T22:39:06.603Z,60.99
2019-05-28T22:41:38.354Z,61.34
2019-05-28T22:44:05.377Z,63.29
2019-05-28T22:46:31.655Z,65.00
2019-05-28T22:48:57.740Z,63.89
2019-05-28T22:51:23.951Z,62.75
2019-05-28T22:53:50.045Z,62.69
2019-05-28T22:56:16.238Z,62.75
2019-05-28T22:58:42.323Z,61.84
2019-05-28T23:01:08.783Z,62.76
2019-05-28T23:03:34.950Z,62.53
2019-05-28T23:06:01.161Z,63.19
2019-05-28T23:08:27.312Z,63.80
2019-05-28T23:10:56.757Z,64.30
2019-05-28T23:13:21.475Z,62.77
2019-05-28T23:15:47.631Z,63.73
2019-05-28T23:18:13.704Z,63.48
2019-05-28T23:20:39.784Z,64.07
2019-05-28T23:23:05.903Z,63.69
2019-05-28T23:25:33.037Z,65.07
2019-05-28T23:27:59.156Z,63.05
2019-05-28T23:30:25.761Z,64.90
2019-05-28T23:32:53.010Z,65.00
2019-05-28T23:35:19.069Z,66.11
2019-05-28T23:37:45.259Z,66.42
2019-05-28T23:40:11.617Z,66.63
2019-05-28T23:42:37.715Z,66.37
2019-05-28T23:45:06.201Z,67.46
2019-05-28T23:47:32.468Z,69.87
2019-05-28T23:49:58.553Z,69.48
2019-05-28T23:52:24.624Z,69.22
2019-05-28T23:54:50.714Z,69.25
2019-05-28T23:57:16.781Z,70.32
2019-05-28T23:59:42.985Z,68.74
